Time;durP1;ratioP1;P1;durP2;ratioP2;P2;SDS_P1;SDS_P2;PMS_P1;PMS_P2;Temp;Humidity;BMP_temperature;BMP_pressure;BME280_temperature;BME280_humidity;BME280_pressure;Samples;Min_cycle;Max_cycle;Signal;HPM_P1;HPM_P2
2021/11/30 00:00:04;;;;;;;15.82;11.80;;;;;;;2.15;93.85;100586.38;1994344;29;23307;-62
2021/11/30 00:01:10;;;;;;;18.38;12.25;;;;;;;2.18;93.77;100580.25;1993614;29;20047;-63
2021/11/30 00:02:12;;;;;;;19.75;12.25;;;;;;;2.18;94.00;100586.41;1986551;29;21108;-62
2021/11/30 00:03:14;;;;;;;15.30;11.30;;;;;;;2.19;94.13;100587.28;1979220;29;23120;-63
2021/11/30 00:04:16;;;;;;;18.13;12.23;;;;;;;2.18;93.94;100578.47;1978847;29;23550;-63
2021/11/30 00:05:18;;;;;;;17.65;12.60;;;;;;;2.19;94.17;100582.91;1979170;29;24361;-62
2021/11/30 00:06:20;;;;;;;16.58;12.00;;;;;;;2.22;93.68;100574.09;1979076;29;20124;-63
2021/11/30 00:07:22;;;;;;;17.67;12.40;;;;;;;2.23;94.22;100574.13;1986487;29;23776;-62
2021/11/30 00:08:28;;;;;;;18.88;12.07;;;;;;;2.23;93.70;100568.84;1994007;29;29661;-62
2021/11/30 00:10:47;;;;;;;16.65;11.85;;;;;;;2.24;93.86;100565.31;1994259;29;24332;-63
2021/11/30 00:11:52;;;;;;;17.80;11.13;;;;;;;2.25;94.12;100567.06;1994190;29;20971;-62
2021/11/30 00:12:54;;;;;;;17.35;11.73;;;;;;;2.27;94.22;100569.72;1994335;29;20077;-62
2021/11/30 00:13:56;;;;;;;15.23;11.13;;;;;;;2.25;93.82;100569.72;1994504;29;24365;-62
2021/11/30 00:14:57;;;;;;;16.08;11.27;;;;;;;2.26;93.79;100574.13;1993789;29;32780;-62
2021/11/30 00:16:01;;;;;;;18.10;11.30;;;;;;;2.27;93.80;100569.72;1994569;29;20181;-61
2021/11/30 00:17:08;;;;;;;18.90;11.80;;;;;;;2.26;94.01;100563.56;1993800;29;20752;-62
2021/11/30 00:18:10;;;;;;;17.63;11.55;;;;;;;2.28;93.81;100561.81;1993289;29;30774;-62
2021/11/30 00:19:12;;;;;;;15.45;10.30;;;;;;;2.31;94.28;100560.06;1993820;29;31996;-62
2021/11/30 00:20:14;;;;;;;18.60;11.20;;;;;;;2.29;94.03;100558.28;1994035;29;25947;-62
2021/11/30 00:21:16;;;;;;;17.20;10.27;;;;;;;2.31;93.91;100555.66;1994297;29;21597;-62
2021/11/30 00:22:21;;;;;;;19.73;11.32;;;;;;;2.31;94.05;100554.78;1994437;29;20166;-62
2021/11/30 00:23:23;;;;;;;14.18;10.45;;;;;;;2.32;94.39;100546.00;1994438;29;21559;-62
2021/11/30 00:24:29;;;;;;;16.55;11.68;;;;;;;2.32;94.37;100543.34;1993406;29;22738;-62
2021/11/30 00:25:32;;;;;;;16.23;11.63;;;;;;;2.31;93.92;100534.53;1993864;29;20035;-62
2021/11/30 00:26:34;;;;;;;14.80;10.82;;;;;;;2.31;94.66;100531.88;1993849;29;23342;-62
2021/11/30 00:27:36;;;;;;;15.63;10.65;;;;;;;2.29;94.10;100521.28;1994100;29;21038;-62
2021/11/30 00:28:38;;;;;;;15.85;11.00;;;;;;;2.31;94.56;100531.00;1994277;29;20114;-62
2021/11/30 00:29:40;;;;;;;16.38;10.65;;;;;;;2.31;94.16;100528.38;1994050;29;23996;-61
2021/11/30 00:30:42;;;;;;;16.90;10.60;;;;;;;2.31;94.19;100528.38;1993863;29;31749;-62
2021/11/30 00:31:44;;;;;;;15.95;10.90;;;;;;;2.29;94.31;100518.66;1985896;29;23791;-62
2021/11/30 00:32:46;;;;;;;18.40;11.73;;;;;;;2.31;94.24;100515.16;1986088;29;26253;-63
2021/11/30 00:33:47;;;;;;;14.88;10.35;;;;;;;2.32;94.32;100509.00;1994457;29;20254;-62
2021/11/30 00:34:49;;;;;;;14.18;10.65;;;;;;;2.31;94.50;100509.88;1994098;29;23388;-62
2021/11/30 00:35:51;;;;;;;16.63;10.93;;;;;;;2.31;94.64;100513.38;1994109;29;26731;-62
2021/11/30 00:36:54;;;;;;;14.18;10.35;;;;;;;2.32;94.60;100509.88;1994964;29;20051;-62
2021/11/30 00:37:58;;;;;;;14.88;10.07;;;;;;;2.32;94.67;100520.44;1993856;29;32191;-61
2021/11/30 00:39:00;;;;;;;14.50;10.02;;;;;;;2.34;94.33;100523.09;1993907;29;28483;-61
2021/11/30 00:40:02;;;;;;;14.45;10.20;;;;;;;2.34;94.31;100502.84;1994234;29;20426;-62
2021/11/30 00:41:07;;;;;;;14.00;10.07;;;;;;;2.35;94.58;100509.00;1994115;29;20751;-62
2021/11/30 00:42:09;;;;;;;14.98;9.85;;;;;;;2.36;94.45;100502.84;1993586;29;25943;-62
2021/11/30 00:43:19;;;;;;;16.58;9.35;;;;;;;2.36;94.46;100505.50;1993816;29;30707;-62
2021/11/30 00:44:25;;;;;;;15.65;9.00;;;;;;;2.36;94.49;100505.50;1993778;29;32427;-62
2021/11/30 00:45:36;;;;;;;16.92;8.93;;;;;;;2.35;94.51;100504.63;1994190;29;22634;-62
2021/11/30 00:46:38;;;;;;;14.23;8.73;;;;;;;2.37;93.90;100513.44;1985805;29;20052;-62
2021/11/30 00:47:56;;;;;;;13.43;8.45;;;;;;;2.38;94.05;100501.09;1986116;29;34395;-62
2021/11/30 00:48:59;;;;;;;15.90;8.70;;;;;;;2.38;94.35;100499.31;1994133;29;25580;-62
2021/11/30 00:50:06;;;;;;;11.52;8.52;;;;;;;2.38;93.99;100501.09;1993443;29;24992;-62
2021/11/30 00:51:17;;;;;;;12.07;9.40;;;;;;;2.38;94.45;100496.69;1993648;29;20097;-62
2021/11/30 00:52:19;;;;;;;16.20;8.52;;;;;;;2.39;93.83;100497.59;1993919;29;20038;-62
2021/11/30 00:53:21;;;;;;;14.85;8.15;;;;;;;2.40;94.33;100494.03;1992965;29;36071;-62
2021/11/30 00:54:26;;;;;;;9.27;7.78;;;;;;;2.40;93.97;100486.13;1993367;29;24573;-62
2021/11/30 00:55:31;;;;;;;11.52;7.75;;;;;;;2.40;93.94;100486.13;1986112;29;23748;-62
2021/11/30 00:56:36;;;;;;;16.63;8.25;;;;;;;2.39;93.68;100489.66;1986318;29;25797;-62
2021/11/30 00:57:40;;;;;;;19.20;8.00;;;;;;;2.39;94.07;100473.81;1993954;29;27249;-61
2021/11/30 00:58:46;;;;;;;11.32;7.38;;;;;;;2.39;94.33;100481.72;1985773;29;28915;-62
2021/11/30 00:59:51;;;;;;;12.18;8.07;;;;;;;2.39;94.10;100479.97;1987368;29;22125;-62
2021/11/30 01:00:53;;;;;;;11.35;7.45;;;;;;;2.40;94.40;100483.47;1985746;29;28403;-62
2021/11/30 01:01:59;;;;;;;10.68;7.53;;;;;;;2.40;94.31;100478.19;1986547;29;27758;-62
2021/11/30 01:03:06;;;;;;;9.50;6.65;;;;;;;2.39;93.97;100474.69;1994465;29;20859;-62
2021/11/30 01:04:30;;;;;;;12.88;7.55;;;;;;;2.41;93.89;100472.06;1993730;29;23380;-62
2021/11/30 01:05:53;;;;;;;12.43;6.95;;;;;;;2.41;94.06;100472.91;1994219;29;20042;-62
2021/11/30 01:06:55;;;;;;;13.02;7.13;;;;;;;2.41;93.98;100466.75;1994292;29;27148;-62
2021/11/30 01:07:57;;;;;;;10.50;7.72;;;;;;;2.40;94.18;100471.13;1985332;29;25338;-62
2021/11/30 01:09:02;;;;;;;13.65;6.78;;;;;;;2.41;93.58;100464.13;1986150;29;29611;-61
2021/11/30 01:10:12;;;;;;;14.18;7.43;;;;;;;2.42;94.30;100455.28;1993613;29;32971;-62
2021/11/30 01:11:14;;;;;;;10.48;6.28;;;;;;;2.44;93.94;100458.81;1986039;29;20056;-62
2021/11/30 01:12:16;;;;;;;11.27;6.55;;;;;;;2.45;93.99;100447.38;1986550;29;28957;-62
2021/11/30 01:13:19;;;;;;;9.13;6.53;;;;;;;2.44;93.97;100449.16;1993826;29;26643;-63
2021/11/30 01:14:23;;;;;;;11.00;6.03;;;;;;;2.47;93.83;100450.91;1993544;29;28747;-62
2021/11/30 01:15:25;;;;;;;9.20;6.03;;;;;;;2.47;93.31;100449.13;1993907;29;27870;-62
2021/11/30 01:16:26;;;;;;;9.05;5.95;;;;;;;2.49;93.35;100451.78;1985916;29;20928;-62
2021/11/30 01:17:28;;;;;;;10.10;5.40;;;;;;;2.49;93.48;100449.16;1986466;29;20044;-62
2021/11/30 01:18:31;;;;;;;8.73;5.50;;;;;;;2.51;93.31;100451.78;1993427;29;34736;-61
2021/11/30 01:19:33;;;;;;;6.55;5.28;;;;;;;2.52;93.37;100453.56;1994045;29;20104;-64
2021/11/30 01:20:36;;;;;;;8.18;5.38;;;;;;;2.53;93.65;100457.97;1993824;29;26491;-63
2021/11/30 01:21:38;;;;;;;7.13;5.00;;;;;;;2.51;93.22;100457.97;1993862;29;31161;-63
2021/11/30 01:22:42;;;;;;;8.90;5.20;;;;;;;2.51;93.32;100463.25;1986245;29;21729;-62
2021/11/30 01:23:43;;;;;;;10.98;5.35;;;;;;;2.53;93.72;100460.59;1985850;29;31053;-62
2021/11/30 01:24:45;;;;;;;8.38;5.20;;;;;;;2.53;93.52;100464.16;1994041;29;24980;-64
2021/11/30 01:25:47;;;;;;;7.85;4.72;;;;;;;2.54;93.35;100455.34;1985646;29;22572;-63
2021/11/30 01:26:49;;;;;;;7.25;4.95;;;;;;;2.55;93.45;100449.19;1978039;29;23877;-64
2021/11/30 01:27:53;;;;;;;9.20;4.50;;;;;;;2.56;93.61;100453.56;1985350;29;33469;-63
2021/11/30 01:28:55;;;;;;;5.60;3.97;;;;;;;2.59;93.07;100452.72;1993804;29;26721;-63
2021/11/30 01:29:57;;;;;;;8.45;4.63;;;;;;;2.58;93.40;100449.16;1993720;29;23089;-63
2021/11/30 01:31:01;;;;;;;8.55;4.80;;;;;;;2.61;93.44;100449.19;1994250;29;20178;-63
2021/11/30 01:32:04;;;;;;;10.73;4.03;;;;;;;2.63;93.43;100439.47;1993264;29;32726;-63
2021/11/30 01:33:07;;;;;;;8.32;3.88;;;;;;;2.64;93.15;100451.84;1993896;29;24302;-63
2021/11/30 01:34:09;;;;;;;5.38;3.97;;;;;;;2.65;92.98;100450.06;1993479;29;33310;-63
2021/11/30 01:35:13;;;;;;;9.23;4.03;;;;;;;2.66;92.94;100444.78;1994064;29;20790;-63
2021/11/30 01:36:15;;;;;;;8.32;3.33;;;;;;;2.67;93.05;100433.34;1993924;29;20066;-64
2021/11/30 01:37:17;;;;;;;8.70;3.80;;;;;;;2.71;93.31;100430.69;1993480;29;29432;-64
2021/11/30 01:38:19;;;;;;;6.15;3.70;;;;;;;2.72;93.04;100437.75;1993627;29;22187;-64
2021/11/30 01:39:22;;;;;;;14.82;3.65;;;;;;;2.72;92.67;100427.19;1994234;29;20987;-63
2021/11/30 01:40:25;;;;;;;7.13;3.67;;;;;;;2.75;92.75;100419.25;1994018;29;20135;-63
2021/11/30 01:41:29;;;;;;;7.47;3.90;;;;;;;2.77;92.74;100417.50;1993328;29;31872;-63
2021/11/30 01:42:31;;;;;;;7.28;3.58;;;;;;;2.78;92.50;100420.13;1993645;29;25506;-64
2021/11/30 01:43:42;;;;;;;10.20;3.60;;;;;;;2.80;92.36;100412.19;1993866;29;30468;-63
2021/11/30 01:46:08;;;;;;;7.35;2.83;;;;;;;2.81;92.10;100416.59;1991789;29;20271;-63
2021/11/30 01:49:52;;;;;;;;;;;;;;;2.88;91.79;100397.22;1991596;29;21178;-63
2021/11/30 01:51:00;;;;;;;6.68;2.40;;;;;;;2.88;91.70;100409.56;1993676;29;26355;-63
2021/11/30 01:52:09;;;;;;;8.02;2.70;;;;;;;2.89;91.45;100399.00;1993717;29;24317;-63
2021/11/30 01:53:11;;;;;;;10.68;3.08;;;;;;;2.89;91.07;100412.22;1993710;29;27935;-63
2021/11/30 01:54:13;;;;;;;7.05;2.85;;;;;;;2.89;91.39;100391.06;1993483;29;30672;-63
2021/11/30 01:55:16;;;;;;;10.50;2.53;;;;;;;2.90;91.42;100399.84;1993743;29;21471;-64
2021/11/30 01:56:18;;;;;;;3.10;2.30;;;;;;;2.89;90.87;100383.13;1993740;29;24413;-63
2021/11/30 01:57:24;;;;;;;6.30;2.53;;;;;;;2.92;91.04;100387.50;1993893;29;27309;-63
2021/11/30 01:58:26;;;;;;;8.73;2.22;;;;;;;2.96;90.56;100389.25;1993872;29;22469;-64
2021/11/30 01:59:28;;;;;;;4.47;2.25;;;;;;;2.96;90.81;100391.91;1993629;29;25697;-63
2021/11/30 02:00:34;;;;;;;4.78;1.88;;;;;;;2.96;91.24;100383.97;1992721;29;25199;-64
2021/11/30 02:01:36;;;;;;;5.90;2.20;;;;;;;2.94;91.40;100378.69;1993048;29;23062;-63
2021/11/30 02:02:39;;;;;;;5.78;2.08;;;;;;;2.96;91.47;100378.69;1993166;29;20935;-63
2021/11/30 02:03:43;;;;;;;9.73;2.67;;;;;;;2.94;91.66;100389.25;1993271;29;20181;-63
2021/11/30 02:04:46;;;;;;;10.30;2.70;;;;;;;2.93;91.63;100382.22;1994034;29;20938;-63
2021/11/30 02:05:48;;;;;;;7.25;2.67;;;;;;;2.94;91.73;100365.47;1993683;29;31332;-64
2021/11/30 02:06:52;;;;;;;6.53;2.80;;;;;;;2.93;91.89;100363.72;1993580;29;29604;-63
2021/11/30 02:07:54;;;;;;;8.23;2.35;;;;;;;2.93;91.91;100353.16;1985541;29;28064;-64
2021/11/30 02:08:56;;;;;;;6.85;2.45;;;;;;;2.92;91.77;100364.59;1986125;29;21134;-63
2021/11/30 02:09:58;;;;;;;4.70;2.50;;;;;;;2.91;91.44;100352.28;1993965;29;20047;-64
2021/11/30 02:11:00;;;;;;;6.70;3.00;;;;;;;2.90;92.25;100353.13;1993685;29;29212;-63
2021/11/30 02:12:04;;;;;;;6.97;3.17;;;;;;;2.89;92.75;100347.84;1993541;29;27064;-64
2021/11/30 02:13:06;;;;;;;11.60;3.03;;;;;;;2.87;92.50;100339.91;1993879;29;20042;-64
2021/11/30 02:14:08;;;;;;;8.90;3.10;;;;;;;2.85;92.87;100339.94;1993242;29;20043;-63
2021/11/30 02:15:12;;;;;;;5.53;2.97;;;;;;;2.84;92.47;100338.16;1993780;29;22918;-64
2021/11/30 02:16:18;;;;;;;7.05;2.90;;;;;;;2.84;92.47;100346.09;1985335;29;24596;-64
2021/11/30 02:17:20;;;;;;;8.80;2.97;;;;;;;2.84;92.36;100332.00;1986652;29;22132;-63
2021/11/30 02:18:23;;;;;;;10.05;2.75;;;;;;;2.83;92.20;100328.47;1993514;29;20845;-63
2021/11/30 02:19:25;;;;;;;9.13;3.05;;;;;;;2.83;92.72;100327.59;1994842;29;20170;-64
2021/11/30 02:20:27;;;;;;;6.32;2.92;;;;;;;2.82;92.72;100332.00;1994643;29;25748;-63
2021/11/30 02:21:36;;;;;;;7.35;3.28;;;;;;;2.82;92.43;100331.13;1995148;29;24489;-64
2021/11/30 02:22:39;;;;;;;8.18;3.47;;;;;;;2.83;92.31;100327.59;1994691;29;30698;-64
2021/11/30 02:24:56;;;;;;;7.72;3.35;;;;;;;2.84;92.65;100309.09;1994661;29;30505;-64
2021/11/30 02:26:01;;;;;;;6.72;3.53;;;;;;;2.84;92.85;100311.72;1987019;29;20941;-64
2021/11/30 02:27:03;;;;;;;8.07;3.55;;;;;;;2.82;92.67;100310.84;1987644;29;20187;-63
2021/11/30 02:28:05;;;;;;;8.02;3.70;;;;;;;2.83;93.06;100295.88;1994509;29;27507;-63
2021/11/30 02:29:10;;;;;;;9.90;3.65;;;;;;;2.83;93.04;100301.16;1994914;29;24123;-64
2021/11/30 02:30:12;;;;;;;6.72;3.72;;;;;;;2.82;93.10;100299.41;1994866;29;23816;-64
2021/11/30 02:31:21;;;;;;;6.47;3.75;;;;;;;2.80;93.31;100293.22;1995178;29;20135;-63
2021/11/30 02:32:22;;;;;;;8.93;3.92;;;;;;;2.80;93.45;100298.50;1986877;29;20043;-64
2021/11/30 02:33:25;;;;;;;10.60;3.97;;;;;;;2.80;93.54;100280.00;1987459;29;20366;-64
2021/11/30 02:34:26;;;;;;;8.27;4.05;;;;;;;2.80;93.58;100280.00;1994932;29;20165;-63
2021/11/30 02:35:29;;;;;;;9.65;3.92;;;;;;;2.78;93.72;100282.69;1994965;29;20165;-64
2021/11/30 02:36:49;;;;;;;8.75;4.70;;;;;;;2.77;93.97;100275.63;1994691;29;23147;-64
2021/11/30 02:37:57;;;;;;;10.27;4.18;;;;;;;2.76;93.60;100272.97;1995101;29;20043;-63
2021/11/30 02:39:03;;;;;;;9.15;4.53;;;;;;;2.77;94.28;100265.03;1995112;29;20127;-63
2021/11/30 02:40:08;;;;;;;10.70;4.47;;;;;;;2.75;94.23;100261.53;1994442;29;29583;-64
2021/11/30 02:41:10;;;;;;;10.93;4.60;;;;;;;2.75;94.54;100255.38;1995271;29;20159;-63
2021/11/30 02:42:12;;;;;;;12.25;4.60;;;;;;;2.75;94.52;100253.59;1986522;29;24222;-63
2021/11/30 02:43:14;;;;;;;8.30;5.05;;;;;;;2.74;94.22;100240.38;1986709;29;20768;-62
2021/11/30 02:44:18;;;;;;;10.77;5.43;;;;;;;2.73;94.31;100244.78;1994464;29;26916;-63
2021/11/30 02:45:19;;;;;;;13.05;5.07;;;;;;;2.74;94.29;100235.97;1986698;29;27735;-63
2021/11/30 02:46:34;;;;;;;9.93;5.55;;;;;;;2.74;93.84;100235.09;1978974;29;25032;-64
2021/11/30 02:47:39;;;;;;;9.32;5.18;;;;;;;2.76;94.41;100228.03;1988519;29;21860;-64
2021/11/30 02:48:40;;;;;;;13.43;5.93;;;;;;;2.76;94.69;100222.75;1994561;29;28315;-64
2021/11/30 02:49:44;;;;;;;10.13;5.18;;;;;;;2.75;94.61;100223.66;1994947;29;20146;-63
2021/11/30 02:50:48;;;;;;;14.10;6.20;;;;;;;2.75;94.57;100210.44;1994335;29;27539;-63
2021/11/30 02:51:55;;;;;;;12.20;5.68;;;;;;;2.74;94.81;100213.94;1995092;29;20047;-64
2021/11/30 02:52:58;;;;;;;13.35;6.18;;;;;;;2.71;94.82;100201.63;1994630;29;26888;-64
2021/11/30 02:54:05;;;;;;;12.63;6.03;;;;;;;2.73;94.44;100204.25;1986025;29;31298;-64
2021/11/30 02:55:07;;;;;;;14.10;6.10;;;;;;;2.73;94.78;100207.78;1980800;29;20124;-64
2021/11/30 02:56:09;;;;;;;10.95;6.10;;;;;;;2.73;94.92;100188.38;1979151;29;30261;-64
2021/11/30 02:57:17;;;;;;;11.40;6.18;;;;;;;2.73;94.99;100183.09;1987081;29;20087;-64
2021/11/30 02:58:18;;;;;;;11.55;5.93;;;;;;;2.73;95.06;100183.09;1994537;29;25849;-64
2021/11/30 02:59:22;;;;;;;8.02;5.85;;;;;;;2.73;95.02;100184.00;1994972;29;20093;-63
2021/11/30 03:00:24;;;;;;;11.88;6.50;;;;;;;2.75;94.67;100186.66;1994572;29;29645;-63
2021/11/30 03:01:26;;;;;;;12.40;6.95;;;;;;;2.75;94.67;100171.66;1994375;29;30187;-64
2021/11/30 03:02:32;;;;;;;13.20;7.05;;;;;;;2.75;94.83;100152.28;1995112;29;20939;-64
2021/11/30 03:03:36;;;;;;;12.10;8.27;;;;;;;2.76;94.37;100173.38;1994642;29;30715;-63
2021/11/30 03:04:40;;;;;;;12.68;7.90;;;;;;;2.75;94.60;100182.22;1994106;29;21977;-63
2021/11/30 03:05:42;;;;;;;11.15;8.27;;;;;;;2.76;94.81;100168.09;1986929;29;20169;-63
2021/11/30 03:06:43;;;;;;;16.70;8.57;;;;;;;2.75;94.70;100162.84;1986842;29;30889;-63
2021/11/30 03:07:48;;;;;;;9.45;8.43;;;;;;;2.77;94.81;100174.28;1995090;29;20046;-64
2021/11/30 03:08:50;;;;;;;11.55;8.77;;;;;;;2.76;94.72;100157.53;1994702;29;22068;-63
2021/11/30 03:09:53;;;;;;;10.13;8.93;;;;;;;2.77;94.58;100154.03;1994452;29;26446;-63
2021/11/30 03:10:55;;;;;;;16.70;9.68;;;;;;;2.76;94.68;100154.03;1994621;29;24455;-63
2021/11/30 03:11:59;;;;;;;11.48;9.05;;;;;;;2.75;95.38;100144.34;1994739;29;22492;-63
2021/11/30 03:13:01;;;;;;;14.40;9.85;;;;;;;2.77;94.86;100145.22;1994591;29;28388;-64
2021/11/30 03:14:08;;;;;;;11.00;9.77;;;;;;;2.76;94.71;100152.25;1994672;29;21624;-63
2021/11/30 03:15:14;;;;;;;15.20;10.60;;;;;;;2.77;94.77;100132.88;1994755;29;22964;-63
2021/11/30 03:16:18;;;;;;;12.77;9.93;;;;;;;2.77;95.15;100132.00;1994326;29;24265;-64
2021/11/30 03:17:21;;;;;;;12.50;10.90;;;;;;;2.75;94.77;100129.38;1987051;29;24681;-62
2021/11/30 03:18:22;;;;;;;15.80;11.13;;;;;;;2.77;94.83;100126.72;1986920;29;20636;-63
2021/11/30 03:19:28;;;;;;;14.77;11.27;;;;;;;2.77;94.95;100137.28;1995079;29;20039;-63
2021/11/30 03:20:29;;;;;;;14.88;10.95;;;;;;;2.76;95.13;100123.16;1986426;29;24983;-63
2021/11/30 03:21:32;;;;;;;13.23;10.52;;;;;;;2.77;94.75;100121.44;1987312;29;20942;-63
2021/11/30 03:22:34;;;;;;;13.70;10.07;;;;;;;2.79;94.72;100109.94;1994621;29;20173;-63
2021/11/30 03:23:36;;;;;;;12.23;10.30;;;;;;;2.79;94.74;100114.38;1994736;29;21051;-63
2021/11/30 03:24:38;;;;;;;16.02;11.25;;;;;;;2.79;94.54;100117.00;1994702;29;20995;-63
2021/11/30 03:25:43;;;;;;;12.73;11.23;;;;;;;2.79;94.85;100106.44;1994894;29;21014;-63
2021/11/30 03:26:47;;;;;;;13.27;10.88;;;;;;;2.78;94.67;100102.03;1994802;29;20895;-64
2021/11/30 03:27:50;;;;;;;14.10;11.13;;;;;;;2.78;94.96;100113.50;1994353;29;27746;-63
2021/11/30 03:28:52;;;;;;;13.25;11.30;;;;;;;2.79;94.71;100102.03;1986231;29;24744;-63
2021/11/30 03:29:54;;;;;;;12.25;11.05;;;;;;;2.80;94.81;100105.53;1986433;29;32808;-63
2021/11/30 03:31:04;;;;;;;13.55;11.55;;;;;;;2.80;95.11;100095.88;1994525;29;20243;-63
2021/11/30 03:32:09;;;;;;;12.38;11.02;;;;;;;2.81;94.87;100102.03;1994275;29;27360;-63
2021/11/30 03:34:34;;;;;;;12.20;9.95;;;;;;;2.83;95.00;100090.53;1994272;29;25736;-63
2021/11/30 03:35:36;;;;;;;11.98;10.25;;;;;;;2.84;94.51;100083.50;1994230;29;33083;-63
2021/11/30 03:36:41;;;;;;;12.85;10.73;;;;;;;2.85;94.99;100090.53;1993946;29;28979;-63
2021/11/30 03:37:43;;;;;;;11.95;10.30;;;;;;;2.86;94.93;100071.16;1985604;29;27551;-63
2021/11/30 03:38:45;;;;;;;13.18;10.60;;;;;;;2.87;94.73;100080.81;1986245;29;20136;-63
2021/11/30 03:39:46;;;;;;;11.43;10.18;;;;;;;2.88;94.47;100071.16;1994652;29;24244;-63
2021/11/30 03:40:48;;;;;;;12.35;10.95;;;;;;;2.85;94.31;100066.75;1994628;29;21973;-63
2021/11/30 03:41:53;;;;;;;11.93;10.05;;;;;;;2.91;94.77;100063.19;1994862;29;20262;-63
2021/11/30 03:42:55;;;;;;;12.65;9.90;;;;;;;2.92;94.19;100052.59;1994672;29;22192;-64
2021/11/30 03:43:58;;;;;;;11.98;10.52;;;;;;;2.91;94.40;100061.44;1994605;29;20078;-63
2021/11/30 03:45:00;;;;;;;11.38;9.93;;;;;;;2.91;94.47;100056.16;1994871;29;20201;-62
2021/11/30 03:46:02;;;;;;;12.10;10.23;;;;;;;2.92;94.65;100052.59;1993706;29;20103;-63
2021/11/30 03:47:04;;;;;;;14.27;10.50;;;;;;;2.90;94.46;100035.88;1993272;29;28028;-63
2021/11/30 03:48:06;;;;;;;10.43;9.43;;;;;;;2.92;94.42;100036.72;1994070;29;24767;-63
2021/11/30 03:49:11;;;;;;;12.15;10.05;;;;;;;2.94;94.77;100039.38;1994178;29;20096;-63
2021/11/30 03:50:13;;;;;;;11.02;9.43;;;;;;;2.93;94.62;100046.44;1986227;29;23444;-63
2021/11/30 03:51:17;;;;;;;11.68;10.00;;;;;;;2.95;94.54;100041.16;1987178;29;20047;-63
2021/11/30 03:52:19;;;;;;;13.07;9.93;;;;;;;2.95;94.49;100035.84;1993759;29;31158;-63
2021/11/30 03:53:24;;;;;;;11.43;10.02;;;;;;;2.95;94.74;100026.16;1994529;29;20046;-63
2021/11/30 03:54:28;;;;;;;11.73;9.88;;;;;;;2.97;94.42;100044.66;1994234;29;20039;-63
2021/11/30 03:55:32;;;;;;;12.73;9.35;;;;;;;2.97;94.69;100034.94;1994278;29;31643;-64
2021/11/30 03:56:38;;;;;;;13.68;10.18;;;;;;;2.97;94.54;100026.16;1994332;29;20051;-63
2021/11/30 03:57:40;;;;;;;11.95;10.07;;;;;;;2.98;94.56;100030.53;1994695;29;20152;-63
2021/11/30 03:58:42;;;;;;;11.73;10.25;;;;;;;2.98;95.16;100012.91;1994506;29;20158;-63
2021/11/30 03:59:44;;;;;;;11.63;9.90;;;;;;;3.00;94.81;100027.00;1993887;29;32830;-63
2021/11/30 04:00:46;;;;;;;11.43;9.57;;;;;;;3.00;94.79;100024.34;1994085;29;30092;-63
2021/11/30 04:01:48;;;;;;;11.85;9.57;;;;;;;3.00;94.68;100005.84;1993680;29;30214;-63
2021/11/30 04:02:50;;;;;;;12.00;9.50;;;;;;;2.99;94.55;99988.22;1994780;29;20092;-63
2021/11/30 04:03:52;;;;;;;11.60;10.20;;;;;;;3.00;94.67;99992.63;1994097;29;25739;-63
2021/11/30 04:04:57;;;;;;;11.88;9.85;;;;;;;3.03;94.57;99991.72;1994597;29;20047;-63
2021/11/30 04:05:59;;;;;;;11.75;10.43;;;;;;;3.02;94.74;100006.72;1993777;29;30601;-63
2021/11/30 04:07:02;;;;;;;12.40;9.90;;;;;;;3.02;94.69;100003.19;1994242;29;28127;-63
2021/11/30 04:08:04;;;;;;;11.55;10.38;;;;;;;3.04;94.63;99990.84;1994594;29;20156;-63
2021/11/30 04:09:09;;;;;;;14.02;11.43;;;;;;;3.04;94.91;99993.47;1994339;29;27578;-63
2021/11/30 04:10:10;;;;;;;11.30;9.43;;;;;;;3.07;94.81;99988.19;1986251;29;22698;-63
2021/11/30 04:11:12;;;;;;;10.90;9.80;;;;;;;3.06;94.98;100013.72;1986827;29;30201;-63
2021/11/30 04:12:14;;;;;;;13.07;9.48;;;;;;;3.08;94.63;100008.44;1994192;29;21025;-63
2021/11/30 04:13:16;;;;;;;10.88;9.80;;;;;;;3.08;94.76;100010.19;1994676;29;20093;-64
2021/11/30 04:14:18;;;;;;;12.60;10.77;;;;;;;3.08;95.17;100004.91;1994491;29;20080;-63
2021/11/30 04:15:21;;;;;;;12.63;10.00;;;;;;;3.08;95.17;99994.34;1994107;29;30674;-63
2021/11/30 04:16:22;;;;;;;12.57;10.43;;;;;;;3.09;95.54;100001.34;1993508;29;30635;-63
2021/11/30 04:17:25;;;;;;;11.13;9.93;;;;;;;3.09;95.12;99986.41;1994397;29;20131;-63
2021/11/30 04:18:29;;;;;;;11.45;10.32;;;;;;;3.09;94.90;99959.94;1994122;29;20103;-63
2021/11/30 04:19:31;;;;;;;13.13;10.00;;;;;;;3.12;94.98;99985.47;1994196;29;21253;-63
2021/11/30 04:20:33;;;;;;;11.05;9.95;;;;;;;3.15;94.90;99969.59;1993783;29;30288;-63
2021/11/30 04:21:35;;;;;;;11.38;9.57;;;;;;;3.16;95.25;99987.19;1994092;29;26026;-63
2021/11/30 04:22:38;;;;;;;12.07;9.05;;;;;;;3.16;94.82;99966.03;1994144;29;20144;-62
2021/11/30 04:23:40;;;;;;;10.75;9.65;;;;;;;3.15;94.85;99970.47;1994042;29;20047;-63
2021/11/30 04:24:43;;;;;;;11.15;9.95;;;;;;;3.17;95.00;99962.53;1994742;29;20051;-63
2021/11/30 04:25:45;;;;;;;10.15;9.18;;;;;;;3.18;95.09;99972.22;1994276;29;21691;-63
2021/11/30 04:26:47;;;;;;;11.52;10.07;;;;;;;3.18;94.91;99969.56;1994592;29;20049;-63
2021/11/30 04:27:49;;;;;;;11.38;10.27;;;;;;;3.19;95.36;99966.03;1994167;29;27102;-62
2021/11/30 04:28:51;;;;;;;10.75;9.10;;;;;;;3.21;95.06;99967.78;1985864;29;31206;-62
2021/11/30 04:29:52;;;;;;;10.93;9.85;;;;;;;3.23;94.87;99965.09;1979174;29;20090;-63
2021/11/30 04:30:54;;;;;;;11.82;10.60;;;;;;;3.23;95.02;99963.34;1986177;29;26897;-63
2021/11/30 04:31:56;;;;;;;13.57;10.35;;;;;;;3.25;95.20;99960.69;1994081;29;20097;-63
2021/11/30 04:32:58;;;;;;;11.43;10.20;;;;;;;3.27;94.96;99958.91;1993727;29;33535;-62
2021/11/30 04:34:03;;;;;;;11.80;10.50;;;;;;;3.27;94.96;99969.50;1994115;29;21222;-62
2021/11/30 04:35:06;;;;;;;12.35;11.05;;;;;;;3.28;95.27;99949.19;1994503;29;20047;-62
2021/11/30 04:36:09;;;;;;;13.90;11.55;;;;;;;3.28;95.14;99959.78;1985625;29;32270;-63
2021/11/30 04:37:11;;;;;;;11.55;10.40;;;;;;;3.29;95.12;99962.41;1986368;29;26493;-62
2021/11/30 04:38:15;;;;;;;12.13;10.93;;;;;;;3.31;95.20;99968.56;1994106;29;25380;-62
2021/11/30 04:39:17;;;;;;;13.95;11.07;;;;;;;3.30;95.15;99950.06;1994164;29;28411;-62
2021/11/30 04:40:19;;;;;;;12.05;10.75;;;;;;;3.31;95.28;99960.63;1994489;29;20172;-62
2021/11/30 04:41:24;;;;;;;12.57;10.95;;;;;;;3.32;95.53;99950.91;1985875;29;25206;-63
2021/11/30 04:42:27;;;;;;;12.88;11.32;;;;;;;3.33;95.62;99955.31;1986370;29;28639;-63
2021/11/30 04:43:34;;;;;;;14.32;11.57;;;;;;;3.33;95.64;99964.13;1994746;29;20080;-63
2021/11/30 04:44:39;;;;;;;15.32;12.00;;;;;;;3.34;95.39;99971.19;1993496;29;33337;-63
2021/11/30 04:45:54;;;;;;;13.52;11.43;;;;;;;3.35;95.65;99957.06;1993702;29;29729;-62
2021/11/30 04:46:59;;;;;;;12.07;10.90;;;;;;;3.35;95.53;99940.31;1994198;29;24727;-63
2021/11/30 04:48:01;;;;;;;12.07;10.73;;;;;;;3.36;95.41;99937.66;1993797;29;29223;-63
2021/11/30 04:49:13;;;;;;;12.52;11.32;;;;;;;3.36;95.60;99942.94;1986467;29;20104;-63
2021/11/30 04:50:26;;;;;;;13.38;11.20;;;;;;;3.38;95.50;99938.50;1987922;29;25516;-64
2021/11/30 04:51:31;;;;;;;15.18;11.90;;;;;;;3.40;95.57;99925.28;1993890;29;24951;-63
2021/11/30 04:52:34;;;;;;;13.13;11.82;;;;;;;3.41;95.57;99925.25;1993843;29;21435;-63
2021/11/30 04:53:36;;;;;;;13.88;12.48;;;;;;;3.42;95.42;99921.69;1994192;29;26371;-63
2021/11/30 04:54:39;;;;;;;13.00;11.68;;;;;;;3.43;95.54;99942.00;1994248;29;20043;-62
2021/11/30 04:55:41;;;;;;;14.00;11.88;;;;;;;3.43;95.49;99936.69;1993909;29;22133;-62
2021/11/30 04:56:43;;;;;;;14.40;12.90;;;;;;;3.47;95.68;99944.63;1994401;29;20165;-63
2021/11/30 04:57:45;;;;;;;13.27;11.88;;;;;;;3.48;95.40;99938.41;1993778;29;24362;-63
2021/11/30 04:58:47;;;;;;;14.27;11.77;;;;;;;3.49;95.44;99948.13;1994155;29;20854;-63
2021/11/30 04:59:49;;;;;;;13.77;12.38;;;;;;;3.49;95.62;99934.88;1994506;29;20169;-63
2021/11/30 05:00:51;;;;;;;14.85;13.23;;;;;;;3.50;95.70;99947.22;1993802;29;32421;-63
2021/11/30 05:01:54;;;;;;;13.55;12.15;;;;;;;3.51;95.55;99947.19;1994043;29;20050;-63
2021/11/30 05:02:57;;;;;;;15.70;13.50;;;;;;;3.51;95.67;99957.78;1992961;29;31529;-63
2021/11/30 05:03:59;;;;;;;14.55;13.05;;;;;;;3.53;95.71;99950.69;1985863;29;25826;-62